Grand Prairie, TX

4:35 AM CDT on June 02, 2015 (GMT -0500)
Nottingham - NW GP | | Change Station
CLOSE
Current Station
Personal Weather Station
Location: Grand Prairie, TX
Elevation: 476 ft
Nearby Weather Stations
Active Advisory: Flood Warning

Elev 476 ft 32.77 °N, 97.04 °W | Updated 14 seconds ago

Clear
Clear
63.9 °F
Feels Like 63.9 °F
N
0.0
Wind Variable Wind from NE
Gusts 0.0 mph

Today
High -- | Low -- °F
--% Chance of Precip.
Yesterday
High -- | Low -- °F
Precip. -- in
6:20 AM 8:31 PM
Full, 100% visible
Pressure 30.04 in
Visibility 10.0 miles
Clouds Clear
Dew Point 63 °F
Humidity 97%
Rainfall 0.00 in
Snow Depth Not available.
UV 0.0 out of 12
Pollen 5.60 out of 12
Air Quality Not available.
Flu Activity Local Activity
METAR KGPM 020915Z AUTO 16003KT 10SM CLR 21/18 A3004 RMK AO2 T02090176

More Conditions Fewer Conditions

Pressure 30.04 in
Visibility 10.0 miles
Clouds Clear
Dew Point 63 °F
Humidity 97%
Rainfall 0.00 in
Snow Depth Not available.
UV 0.0 out of 12
Pollen 5.60 out of 12
Air Quality Not available.
Flu Activity Local Activity
METAR KGPM 020915Z AUTO 16003KT 10SM CLR 21/18 A3004 RMK AO2 T02090176

More Conditions Fewer Conditions

10-Day Weather Forecast

Almanac

Astronomy

Jun. 02, 2015 Rise Set
Actual Time
Civil Twilight
Nautical Twilight
Astronomical Twilight
Moon
Length of Visible Light
Length of Day
Tomorrow will be .
, % of the Moon is Illuminated

Today's Extremes

State Highs State Lows

Community

WunderPhotos

Upload Photos

1,825,901 photos uploaded!

WunderBlogs® & News

Nearby

Air Quality

  Air Quality AQ Index Pollutant
Not available.

Snow Depth

Station Depth Elevation

Earthquake Activity

City Distance Mag. Time & Date
Minimum magnitude displayed is 2.5.

Coastal Water Temperatures

Place Temperature

Stations

Nearby Weather Stations

Station Location Temp. Windchill Dew Point Humidity Wind Precip. Elev Updated Type
                   
Flood Warning
Statement as of 9:32 PM CDT on June 01, 2015

The Flood Warning continues for
the Trinity River at Dallas.
* At 0900 PM Monday the stage was 40.74 feet.
* Flood stage is 30 feet.
* Major flooding is occurring and major flooding is forecast.
* Forecast... the river will continue to fall to a stage near 40 feet
by Wednesday morning.


Lat... Lon 3275 9693 3281 9693 3283 9683 3275 9671
      3269 9676 3278 9687




932 PM CDT Mon Jun 1 2015

The Flood Warning continues for
the Elm Fork Trinity River near Carrollton.
* At 0915 PM Monday the stage was 12.45 feet.
* Flood stage is 8 feet.
* Major flooding is occurring and major flooding is forecast.
* Forecast... the river will continue to fall to a stage near 12 feet
by Wednesday morning.


Lat... Lon 3300 9700 3287 9699 3287 9687 3300 9688